Time;durP1;ratioP1;P1;durP2;ratioP2;P2;SDS_P1;SDS_P2;PMS_P1;PMS_P2;Temp;Humidity;BMP_temperature;BMP_pressure;BME280_temperature;BME280_humidity;BME280_pressure;Samples;Min_cycle;Max_cycle;Signal;HPM_P1;HPM_P2
2023/03/10 00:01:27;;;;;;;39.10;23.50;;;;;;;3.65;74.34;97635.65;105165;1254;98155;-74
2023/03/10 00:03:56;;;;;;;39.40;23.90;;;;;;;3.64;74.14;97634.98;105211;1254;98028;-73
2023/03/10 00:06:26;;;;;;;39.90;23.60;;;;;;;3.65;74.27;97629.85;105317;1276;110893;-73
2023/03/10 00:08:54;;;;;;;40.70;24.20;;;;;;;3.64;74.20;97629.23;105278;1258;102318;-74
2023/03/10 00:11:21;;;;;;;41.60;25.20;;;;;;;3.63;74.29;97626.51;105207;1257;107656;-76
2023/03/10 00:13:48;;;;;;;44.90;26.10;;;;;;;3.63;74.33;97622.45;105063;1271;98021;-74
2023/03/10 00:16:23;;;;;;;44.80;26.00;;;;;;;3.62;74.27;97620.74;104969;1275;98066;-82
2023/03/10 00:18:51;;;;;;;46.20;25.40;;;;;;;3.62;74.13;97617.23;105173;1267;109898;-74
2023/03/10 00:21:20;;;;;;;42.90;24.70;;;;;;;3.62;74.28;97610.05;105256;1257;100897;-74
2023/03/10 00:23:47;;;;;;;43.90;25.80;;;;;;;3.63;74.41;97608.40;105297;1260;108142;-74
2023/03/10 00:26:16;;;;;;;42.90;25.90;;;;;;;3.64;74.17;97603.63;105247;1259;98055;-78
2023/03/10 00:28:43;;;;;;;47.90;26.60;;;;;;;3.64;74.33;97601.02;105613;1253;98366;-74
2023/03/10 00:31:13;;;;;;;49.80;27.80;;;;;;;3.60;74.25;97594.91;105519;1256;110887;-74
2023/03/10 00:33:40;;;;;;;43.70;26.70;;;;;;;3.57;74.33;97595.09;105469;1254;101561;-73
2023/03/10 00:36:08;;;;;;;45.40;27.20;;;;;;;3.53;74.30;97597.33;105154;1260;98837;-73
2023/03/10 00:38:36;;;;;;;45.00;26.60;;;;;;;3.50;74.23;97593.88;105280;1256;97975;-73
2023/03/10 00:41:06;;;;;;;45.40;27.20;;;;;;;3.47;74.32;97588.64;105258;1259;98405;-74
2023/03/10 00:43:34;;;;;;;49.00;29.40;;;;;;;3.42;74.38;97582.27;105329;1259;110984;-75
2023/03/10 00:46:01;;;;;;;47.50;28.20;;;;;;;3.40;74.47;97577.02;105442;1256;98004;-73
2023/03/10 00:48:28;;;;;;;45.00;26.50;;;;;;;3.37;74.24;97568.94;105282;1257;99267;-73
2023/03/10 00:50:55;;;;;;;47.00;27.90;;;;;;;3.32;74.23;97567.52;105190;1260;99268;-74
2023/03/10 00:53:22;;;;;;;41.50;26.40;;;;;;;3.26;74.29;97564.78;105426;1253;97999;-73
2023/03/10 00:56:01;;;;;;;46.70;26.50;;;;;;;3.22;74.38;97567.14;105291;1257;97880;-74
2023/03/10 00:58:29;;;;;;;46.10;27.50;;;;;;;3.22;74.61;97560.32;105437;1258;99806;-76
2023/03/10 01:00:57;;;;;;;42.90;26.90;;;;;;;3.26;74.37;97558.10;105695;1257;107783;-73
2023/03/10 01:03:25;;;;;;;45.70;26.90;;;;;;;3.30;74.44;97557.52;105275;1256;98071;-74
2023/03/10 01:05:52;;;;;;;44.00;26.20;;;;;;;3.35;74.43;97554.77;105213;1252;99585;-74
2023/03/10 01:08:19;;;;;;;46.20;26.80;;;;;;;3.37;74.54;97553.88;105427;1254;97958;-74
2023/03/10 01:10:46;;;;;;;46.50;27.10;;;;;;;3.40;74.54;97551.91;105071;1257;98062;-73
2023/03/10 01:13:15;;;;;;;46.50;27.80;;;;;;;3.43;74.48;97547.69;105116;1254;98055;-73
2023/03/10 01:15:47;;;;;;;45.80;27.50;;;;;;;3.45;74.50;97547.27;105483;1258;98024;-72
2023/03/10 01:18:14;;;;;;;47.20;27.80;;;;;;;3.43;74.24;97542.83;105017;1259;98447;-73
2023/03/10 01:20:42;;;;;;;48.00;28.10;;;;;;;3.41;74.55;97542.73;105183;1254;98022;-74
2023/03/10 01:23:19;;;;;;;47.10;28.70;;;;;;;3.42;74.69;97539.02;105260;1271;97940;-76
2023/03/10 01:25:47;;;;;;;46.00;28.80;;;;;;;3.44;74.60;97533.80;105363;1253;107425;-74
2023/03/10 01:28:14;;;;;;;45.90;28.10;;;;;;;3.45;74.65;97529.56;105317;1256;99396;-75
2023/03/10 01:30:41;;;;;;;46.50;27.40;;;;;;;3.43;74.43;97525.61;105530;1253;97970;-74
2023/03/10 01:33:08;;;;;;;44.80;25.80;;;;;;;3.42;74.49;97515.32;105406;1253;98455;-74
2023/03/10 01:35:36;;;;;;;44.50;28.70;;;;;;;3.41;74.33;97509.79;105255;1266;98057;-74
2023/03/10 01:38:03;;;;;;;43.60;27.30;;;;;;;3.40;74.42;97499.55;105272;1255;99649;-73
2023/03/10 01:40:30;;;;;;;41.30;26.10;;;;;;;3.38;74.42;97501.95;105446;1258;98001;-74
2023/03/10 01:43:19;;;;;;;47.10;27.90;;;;;;;3.35;74.51;97497.98;105195;1259;97948;-74
2023/03/10 01:45:45;;;;;;;49.10;28.90;;;;;;;3.34;74.51;97494.20;105454;1253;111223;-76
2023/03/10 01:48:14;;;;;;;48.90;28.70;;;;;;;3.33;74.62;97494.39;105112;1256;98656;-74
2023/03/10 01:50:44;;;;;;;49.60;29.90;;;;;;;3.31;74.36;97492.81;105265;1260;107256;-83
2023/03/10 01:53:13;;;;;;;49.10;28.70;;;;;;;3.26;74.39;97492.40;105311;1254;97934;-74
2023/03/10 01:55:46;;;;;;;50.50;29.60;;;;;;;3.24;74.45;97489.08;105550;1253;97841;-74
2023/03/10 01:58:15;;;;;;;38.60;23.00;;;;;;;3.22;74.52;97489.02;105571;1256;111267;-76
2023/03/10 02:00:42;;;;;;;49.30;29.90;;;;;;;3.20;74.56;97484.93;105101;1254;100929;-74
2023/03/10 02:03:21;;;;;;;51.50;30.20;;;;;;;3.19;74.67;97484.48;105342;1266;97966;-75
2023/03/10 02:05:54;;;;;;;50.30;30.70;;;;;;;3.21;74.75;97483.81;105277;1256;98068;-74
2023/03/10 02:08:22;;;;;;;48.20;29.50;;;;;;;3.25;74.85;97479.89;105598;1253;97950;-73
2023/03/10 02:10:50;;;;;;;48.90;30.90;;;;;;;3.25;75.02;97475.67;105440;1256;111338;-80
2023/03/10 02:13:17;;;;;;;44.70;26.80;;;;;;;3.28;74.92;97479.17;105466;1256;97954;-74
2023/03/10 02:15:45;;;;;;;42.50;24.30;;;;;;;3.33;75.03;97479.66;105529;1253;97925;-75
2023/03/10 02:18:13;;;;;;;33.20;18.50;;;;;;;3.42;74.95;97476.77;105504;1258;99272;-73
2023/03/10 02:21:04;;;;;;;33.10;17.50;;;;;;;3.55;75.17;97468.73;105274;1253;97960;-73
2023/03/10 02:23:53;;;;;;;31.10;17.90;;;;;;;3.67;75.24;97464.40;105143;1254;111484;-74
2023/03/10 02:26:45;;;;;;;29.20;16.80;;;;;;;3.75;75.37;97456.48;105452;1257;99705;-76
2023/03/10 02:29:22;;;;;;;31.00;16.50;;;;;;;3.83;75.30;97449.58;105358;1255;107725;-73
2023/03/10 02:31:50;;;;;;;28.00;15.80;;;;;;;3.90;75.33;97446.29;105436;1253;97953;-83
2023/03/10 02:34:17;;;;;;;27.80;15.10;;;;;;;3.98;75.47;97447.66;105221;1260;98426;-73
2023/03/10 02:36:43;;;;;;;29.80;14.70;;;;;;;4.07;75.41;97447.21;105458;1256;98056;-74
2023/03/10 02:39:10;;;;;;;26.50;14.70;;;;;;;4.13;75.33;97447.79;105178;1256;98142;-74
2023/03/10 02:41:38;;;;;;;30.30;15.10;;;;;;;4.19;75.43;97445.32;105095;1259;98062;-74
2023/03/10 02:44:08;;;;;;;27.10;15.00;;;;;;;4.22;75.37;97440.17;105216;1259;98049;-73
2023/03/10 02:46:35;;;;;;;28.70;14.90;;;;;;;4.24;75.15;97437.42;105553;1256;98424;-74
2023/03/10 02:49:05;;;;;;;26.90;14.30;;;;;;;4.22;75.26;97439.11;105084;1256;98014;-76
2023/03/10 02:51:39;;;;;;;27.20;13.20;;;;;;;4.22;75.29;97433.33;105254;1276;99911;-74
2023/03/10 02:54:07;;;;;;;27.50;13.40;;;;;;;4.22;75.23;97428.79;105166;1260;107614;-74
2023/03/10 02:56:35;;;;;;;26.00;13.90;;;;;;;4.18;75.26;97433.09;105392;1258;99941;-73
2023/03/10 02:59:04;;;;;;;31.70;16.90;;;;;;;4.14;75.08;97434.39;105496;1256;99157;-74
2023/03/10 03:01:30;;;;;;;34.10;19.00;;;;;;;4.10;74.83;97432.23;104887;1261;111320;-74
2023/03/10 03:03:57;;;;;;;35.00;21.10;;;;;;;4.06;75.03;97428.19;105406;1255;98062;-74
2023/03/10 03:06:24;;;;;;;30.00;16.70;;;;;;;4.00;74.86;97432.96;105004;1256;98107;-73
2023/03/10 03:08:51;;;;;;;28.50;14.40;;;;;;;3.96;74.92;97437.30;105655;1256;99244;-74
2023/03/10 03:11:17;;;;;;;25.40;11.90;;;;;;;3.95;75.07;97427.50;105551;1257;98072;-74
2023/03/10 03:13:44;;;;;;;20.80;10.00;;;;;;;3.98;75.23;97419.40;105111;1253;100941;-73
2023/03/10 03:16:11;;;;;;;23.00;10.50;;;;;;;4.04;75.30;97416.73;105298;1269;97972;-73
2023/03/10 03:18:39;;;;;;;20.50;9.70;;;;;;;4.10;75.36;97421.23;105665;1256;97871;-74
2023/03/10 03:21:09;;;;;;;21.40;9.30;;;;;;;4.14;75.43;97417.72;105505;1257;97926;-73
2023/03/10 03:23:37;;;;;;;21.10;9.60;;;;;;;4.21;75.66;97418.50;105256;1260;111272;-74
2023/03/10 03:26:11;;;;;;;21.90;9.20;;;;;;;4.27;75.38;97423.52;105245;1256;100942;-75
2023/03/10 03:28:38;;;;;;;23.40;10.30;;;;;;;4.31;75.29;97419.16;105143;1259;107786;-73
2023/03/10 03:31:04;;;;;;;21.60;9.90;;;;;;;4.31;75.40;97423.85;105071;1272;97938;-74
2023/03/10 03:33:31;;;;;;;20.40;9.60;;;;;;;4.31;75.40;97423.18;105470;1256;97979;-74
2023/03/10 03:35:57;;;;;;;21.00;9.10;;;;;;;4.33;75.37;97418.98;105735;1253;97995;-74
2023/03/10 03:38:24;;;;;;;22.50;10.10;;;;;;;4.32;75.34;97408.90;105222;1257;107441;-74
2023/03/10 03:40:51;;;;;;;20.00;8.10;;;;;;;4.30;75.24;97402.55;105562;1253;98846;-74
2023/03/10 03:43:17;;;;;;;23.50;9.30;;;;;;;4.30;75.36;97400.98;105442;1256;97979;-74
2023/03/10 03:45:44;;;;;;;19.40;8.40;;;;;;;4.30;75.49;97403.90;105413;1254;98072;-74
2023/03/10 03:48:13;;;;;;;19.10;8.00;;;;;;;4.31;75.49;97401.08;105146;1272;107358;-73
2023/03/10 03:50:40;;;;;;;21.20;8.20;;;;;;;4.30;75.45;97403.73;105406;1254;99137;-74
2023/03/10 03:53:06;;;;;;;17.70;7.70;;;;;;;4.30;75.35;97392.02;105385;1257;97995;-72
2023/03/10 03:55:33;;;;;;;20.40;8.40;;;;;;;4.29;75.33;97392.09;105194;1254;97933;-72
2023/03/10 03:57:59;;;;;;;17.10;7.70;;;;;;;4.27;75.36;97400.11;105305;1256;98056;-73
2023/03/10 04:00:26;;;;;;;18.00;7.70;;;;;;;4.26;75.43;97398.30;105198;1256;98036;-73
2023/03/10 04:02:52;;;;;;;16.10;6.40;;;;;;;4.26;75.46;97395.50;105536;1253;97962;-74
2023/03/10 04:05:19;;;;;;;16.00;6.60;;;;;;;4.27;75.58;97389.08;105345;1254;98050;-73
2023/03/10 04:07:48;;;;;;;17.10;6.60;;;;;;;4.29;75.39;97386.48;105611;1254;97992;-73
2023/03/10 04:10:17;;;;;;;19.10;8.10;;;;;;;4.30;75.41;97387.27;105179;1273;99268;-81
2023/03/10 04:12:43;;;;;;;17.00;6.90;;;;;;;4.30;75.16;97387.08;105459;1253;97976;-74
2023/03/10 04:15:11;;;;;;;17.20;7.30;;;;;;;4.31;75.34;97385.98;105330;1259;97976;-75
2023/03/10 04:17:37;;;;;;;13.70;6.00;;;;;;;4.31;75.44;97387.02;105175;1256;99282;-74
2023/03/10 04:20:07;;;;;;;13.50;5.40;;;;;;;4.31;75.32;97386.84;105004;1259;98024;-73
2023/03/10 04:22:35;;;;;;;14.60;6.00;;;;;;;4.30;75.35;97385.13;105368;1254;107651;-79
2023/03/10 04:25:02;;;;;;;13.00;5.70;;;;;;;4.30;75.36;97382.21;105211;1275;97976;-74
2023/03/10 04:27:29;;;;;;;14.00;5.80;;;;;;;4.31;75.43;97382.14;105704;1256;98050;-76
2023/03/10 04:29:56;;;;;;;14.80;6.00;;;;;;;4.31;75.30;97380.71;105369;1254;98021;-74
2023/03/10 04:32:23;;;;;;;13.00;5.70;;;;;;;4.29;75.23;97380.35;105250;1256;98871;-74
2023/03/10 04:34:50;;;;;;;14.40;6.00;;;;;;;4.29;75.49;97381.21;105525;1253;98059;-74
2023/03/10 04:37:17;;;;;;;15.00;6.00;;;;;;;4.32;75.50;97375.73;105185;1254;99337;-75
2023/03/10 04:39:43;;;;;;;14.30;5.80;;;;;;;4.35;75.49;97373.27;105332;1257;98040;-74
2023/03/10 04:42:10;;;;;;;13.80;5.80;;;;;;;4.37;75.62;97374.98;105270;1254;100902;-74
2023/03/10 04:44:36;;;;;;;15.10;6.20;;;;;;;4.41;75.61;97371.58;105000;1259;99400;-74
2023/03/10 04:47:03;;;;;;;12.80;5.60;;;;;;;4.42;75.58;97371.64;105229;1258;98033;-73
2023/03/10 04:49:30;;;;;;;14.70;5.80;;;;;;;4.43;75.42;97373.20;105653;1253;97941;-73
2023/03/10 04:51:56;;;;;;;11.30;5.60;;;;;;;4.41;75.40;97374.54;105222;1254;100985;-75
2023/03/10 04:54:23;;;;;;;12.70;5.70;;;;;;;4.38;75.43;97371.05;105343;1254;98186;-73
2023/03/10 04:56:49;;;;;;;12.60;5.00;;;;;;;4.38;75.42;97374.40;105596;1256;98270;-73
2023/03/10 04:59:16;;;;;;;10.80;5.30;;;;;;;4.38;75.57;97372.63;105544;1254;97951;-74
2023/03/10 05:01:43;;;;;;;12.30;5.60;;;;;;;4.39;75.46;97364.17;105247;1260;101006;-74
2023/03/10 05:04:10;;;;;;;10.60;4.70;;;;;;;4.39;75.49;97363.95;105519;1254;98369;-73
2023/03/10 05:06:36;;;;;;;13.50;5.20;;;;;;;4.43;75.63;97360.70;105712;1256;99298;-74
2023/03/10 05:09:03;;;;;;;11.20;4.70;;;;;;;4.46;75.54;97363.33;105729;1257;98056;-74
2023/03/10 05:11:31;;;;;;;14.90;5.50;;;;;;;4.48;75.43;97365.41;105740;1256;98027;-74
2023/03/10 05:13:57;;;;;;;11.80;4.90;;;;;;;4.51;75.52;97368.76;105937;1254;107651;-76
2023/03/10 05:16:24;;;;;;;14.00;5.50;;;;;;;4.53;75.53;97362.80;105694;1257;97986;-74
2023/03/10 05:18:52;;;;;;;13.10;6.00;;;;;;;4.57;75.74;97365.59;105467;1258;98374;-74
2023/03/10 05:21:20;;;;;;;11.20;4.80;;;;;;;4.60;75.54;97361.16;105578;1254;98642;-74
2023/03/10 05:23:48;;;;;;;13.60;5.50;;;;;;;4.62;75.79;97359.08;105196;1256;100823;-73
2023/03/10 05:26:15;;;;;;;13.00;5.00;;;;;;;4.67;75.71;97365.44;105303;1256;97960;-73
2023/03/10 05:28:42;;;;;;;10.90;4.80;;;;;;;4.68;75.49;97361.16;105314;1259;98049;-73
2023/03/10 05:31:13;;;;;;;13.50;5.40;;;;;;;4.66;75.49;97357.75;105271;1256;97948;-72
2023/03/10 05:33:40;;;;;;;13.70;5.30;;;;;;;4.65;75.55;97354.17;104957;1260;109939;-74
2023/03/10 05:36:10;;;;;;;12.90;5.10;;;;;;;4.64;75.33;97347.23;105126;1261;100558;-73
2023/03/10 05:38:37;;;;;;;11.20;5.00;;;;;;;4.64;75.53;97348.41;105443;1259;107596;-73
2023/03/10 05:41:08;;;;;;;14.70;5.50;;;;;;;4.65;75.52;97347.12;105310;1254;99057;-73
2023/03/10 05:43:35;;;;;;;14.00;6.00;;;;;;;4.68;75.59;97350.09;105324;1253;98443;-73
2023/03/10 05:46:03;;;;;;;13.80;5.70;;;;;;;4.71;75.69;97351.77;105167;1255;98764;-73
2023/03/10 05:48:30;;;;;;;14.10;5.30;;;;;;;4.76;75.62;97358.02;105334;1260;97983;-72
2023/03/10 05:51:09;;;;;;;11.50;5.60;;;;;;;4.82;75.71;97356.91;105095;1259;98138;-74
2023/03/10 05:53:36;;;;;;;16.90;5.60;;;;;;;4.89;75.93;97355.52;105104;1256;97954;-73
2023/03/10 05:56:08;;;;;;;14.60;5.90;;;;;;;4.97;75.97;97359.06;105673;1254;99180;-73
2023/03/10 05:58:35;;;;;;;14.20;5.70;;;;;;;5.05;75.98;97352.70;105405;1256;110503;-77
2023/03/10 06:01:02;;;;;;;13.60;5.60;;;;;;;5.11;75.72;97350.12;106030;1253;97953;-74
2023/03/10 06:03:29;;;;;;;15.60;6.40;;;;;;;5.17;76.08;97345.78;105559;1253;99275;-70
2023/03/10 06:05:57;;;;;;;15.00;6.50;;;;;;;5.25;76.05;97336.90;105644;1256;98050;-72
2023/03/10 06:08:26;;;;;;;13.30;6.10;;;;;;;5.32;76.10;97335.84;105562;1256;97935;-75
2023/03/10 06:10:54;;;;;;;16.20;5.90;;;;;;;5.40;76.21;97336.48;105629;1259;111256;-72
2023/03/10 06:13:21;;;;;;;15.20;6.90;;;;;;;5.48;76.10;97336.18;105545;1254;100684;-79
2023/03/10 06:15:53;;;;;;;16.80;6.50;;;;;;;5.55;76.06;97332.64;105646;1253;97941;-71
2023/03/10 06:18:21;;;;;;;15.80;5.90;;;;;;;5.62;75.97;97327.99;105262;1258;98030;-76
2023/03/10 06:20:49;;;;;;;13.40;6.10;;;;;;;5.70;76.05;97327.59;105319;1256;98024;-75
2023/03/10 06:23:17;;;;;;;14.00;5.70;;;;;;;5.77;76.02;97326.13;105722;1257;111390;-75
2023/03/10 06:25:44;;;;;;;12.50;5.90;;;;;;;5.83;75.94;97322.50;105653;1254;100861;-75
2023/03/10 06:28:11;;;;;;;16.10;6.00;;;;;;;5.91;76.10;97324.65;105199;1254;97987;-73
2023/03/10 06:30:37;;;;;;;13.30;5.50;;;;;;;5.97;75.86;97322.77;105508;1254;97954;-75
2023/03/10 06:33:04;;;;;;;11.70;5.50;;;;;;;6.02;76.21;97315.66;105383;1254;98023;-76
2023/03/10 06:35:32;;;;;;;15.40;5.60;;;;;;;6.10;76.10;97321.16;105247;1275;98962;-71
2023/03/10 06:37:59;;;;;;;13.20;5.60;;;;;;;6.16;76.03;97319.80;105752;1256;97936;-72
2023/03/10 06:40:26;;;;;;;13.30;5.50;;;;;;;6.25;76.03;97318.93;105501;1254;97998;-74
2023/03/10 06:42:55;;;;;;;11.60;5.40;;;;;;;6.32;75.99;97327.15;105498;1254;97969;-74
2023/03/10 06:45:22;;;;;;;13.40;5.30;;;;;;;6.40;76.01;97325.95;105604;1259;98055;-71
2023/03/10 06:47:49;;;;;;;15.10;5.70;;;;;;;6.49;75.91;97322.58;105656;1254;99518;-74
2023/03/10 06:50:16;;;;;;;11.80;4.90;;;;;;;6.58;76.02;97322.01;105710;1256;98051;-80
2023/03/10 06:52:44;;;;;;;14.30;5.50;;;;;;;6.67;76.01;97326.67;105516;1257;97865;-76
2023/03/10 06:55:12;;;;;;;11.80;5.50;;;;;;;6.77;76.14;97322.35;105863;1256;98065;-72
2023/03/10 06:57:39;;;;;;;10.10;4.50;;;;;;;6.87;76.10;97325.05;105756;1254;97953;-76
2023/03/10 07:00:10;;;;;;;11.70;5.60;;;;;;;6.95;75.96;97320.57;105663;1256;98050;-70
2023/03/10 07:02:37;;;;;;;11.40;5.10;;;;;;;7.05;76.05;97320.35;105648;1254;101434;-74
2023/03/10 07:05:10;;;;;;;13.40;4.90;;;;;;;7.12;75.99;97318.79;105759;1272;97956;-70
2023/03/10 07:07:37;;;;;;;12.20;5.10;;;;;;;7.22;75.85;97319.08;105371;1256;97946;-74
2023/03/10 07:10:05;;;;;;;15.00;5.30;;;;;;;7.30;75.72;97316.61;105302;1259;98066;-73
2023/03/10 07:12:34;;;;;;;15.40;5.40;;;;;;;7.38;75.80;97314.88;105643;1256;113637;-72
2023/03/10 07:15:02;;;;;;;10.50;5.30;;;;;;;7.43;75.86;97307.35;105373;1256;97956;-76
2023/03/10 07:17:28;;;;;;;11.60;5.50;;;;;;;7.49;75.79;97306.30;105584;1257;99272;-75
2023/03/10 07:19:55;;;;;;;10.50;4.80;;;;;;;7.55;75.69;97307.50;105701;1256;98008;-72
2023/03/10 07:22:24;;;;;;;11.90;5.30;;;;;;;7.61;75.71;97303.28;105652;1256;98027;-77
2023/03/10 07:24:54;;;;;;;11.90;5.30;;;;;;;7.67;75.76;97300.63;105317;1259;98389;-71
2023/03/10 07:27:22;;;;;;;12.50;5.70;;;;;;;7.76;75.75;97302.16;105634;1256;100696;-73
2023/03/10 07:29:49;;;;;;;14.20;5.70;;;;;;;7.85;75.88;97302.56;105550;1252;107267;-73
2023/03/10 07:32:16;;;;;;;12.10;5.20;;;;;;;7.95;75.69;97301.58;105598;1256;97943;-74
2023/03/10 07:34:42;;;;;;;12.70;5.40;;;;;;;8.06;75.64;97297.20;105213;1256;99540;-73
2023/03/10 07:37:09;;;;;;;15.70;6.30;;;;;;;8.18;75.73;97296.98;105777;1254;97973;-74
2023/03/10 07:39:36;;;;;;;10.90;5.40;;;;;;;8.30;75.66;97299.25;105433;1257;98060;-72
2023/03/10 07:42:03;;;;;;;11.30;5.00;;;;;;;8.42;75.42;97296.97;108750;1253;96121;-72
2023/03/10 07:44:30;;;;;;;10.70;4.60;;;;;;;8.53;75.40;97295.83;108769;1254;95879;-72
2023/03/10 07:46:57;;;;;;;11.70;4.70;;;;;;;8.62;75.55;97292.45;107014;1253;110902;-73
2023/03/10 07:49:24;;;;;;;12.70;4.80;;;;;;;8.71;75.27;97291.32;105825;1254;97963;-72
2023/03/10 07:51:51;;;;;;;12.80;5.40;;;;;;;8.76;75.33;97290.33;105584;1256;97937;-74
2023/03/10 07:54:17;;;;;;;9.00;3.80;;;;;;;8.80;75.34;97289.19;105206;1269;97963;-71
2023/03/10 07:56:44;;;;;;;14.50;4.90;;;;;;;8.86;75.24;97281.05;105391;1259;98050;-72
2023/03/10 07:59:11;;;;;;;11.30;5.00;;;;;;;8.91;75.09;97265.18;105607;1258;98062;-71
2023/03/10 08:01:37;;;;;;;10.50;4.20;;;;;;;8.98;75.09;97262.08;105176;1257;107797;-72
2023/03/10 08:04:05;;;;;;;8.50;4.20;;;;;;;9.04;74.90;97252.61;105203;1257;97975;-72
2023/03/10 08:06:34;;;;;;;9.40;3.90;;;;;;;9.12;74.71;97247.69;105744;1256;97942;-74
2023/03/10 08:09:00;;;;;;;10.60;4.10;;;;;;;9.20;74.70;97239.99;105522;1256;111214;-70
2023/03/10 08:11:27;;;;;;;8.10;4.10;;;;;;;9.29;74.75;97232.64;105200;1260;98072;-72
2023/03/10 08:13:54;;;;;;;9.20;3.80;;;;;;;9.35;74.91;97236.27;105602;1259;98005;-69
2023/03/10 08:16:22;;;;;;;8.40;4.00;;;;;;;9.42;74.58;97230.32;105470;1256;97959;-72
2023/03/10 08:18:51;;;;;;;8.50;4.00;;;;;;;9.49;74.16;97228.41;105578;1256;98032;-69
2023/03/10 08:21:18;;;;;;;9.70;4.00;;;;;;;9.56;74.11;97226.86;105683;1256;97976;-71
2023/03/10 08:23:45;;;;;;;10.70;3.80;;;;;;;9.61;74.55;97221.77;105864;1254;98062;-73
2023/03/10 08:26:15;;;;;;;10.90;4.00;;;;;;;9.64;74.53;97214.22;105657;1253;98447;-75
2023/03/10 08:28:42;;;;;;;13.80;4.80;;;;;;;9.68;74.28;97206.00;105447;1254;98907;-72
2023/03/10 08:31:18;;;;;;;13.10;4.80;;;;;;;9.77;74.35;97205.36;105183;1254;98880;-77
2023/03/10 08:33:46;;;;;;;7.10;3.40;;;;;;;9.85;74.40;97206.98;105211;1261;111286;-77
2023/03/10 08:36:20;;;;;;;8.80;3.70;;;;;;;9.94;74.05;97207.66;105312;1255;100552;-74
2023/03/10 08:38:49;;;;;;;9.70;3.90;;;;;;;10.07;74.08;97210.88;105612;1266;107236;-73
2023/03/10 08:41:24;;;;;;;7.70;3.40;;;;;;;10.16;73.20;97207.89;105575;1254;97979;-81
2023/03/10 08:43:56;;;;;;;8.60;3.60;;;;;;;10.28;73.54;97197.45;105444;1254;99772;-80
2023/03/10 08:46:26;;;;;;;7.60;3.70;;;;;;;10.37;73.55;97199.34;105900;1256;110891;-75
2023/03/10 08:48:53;;;;;;;7.90;3.70;;;;;;;10.46;73.00;97194.89;105570;1259;99906;-75
2023/03/10 08:51:20;;;;;;;9.00;3.80;;;;;;;10.57;73.36;97192.20;105451;1270;98062;-74
2023/03/10 08:53:49;;;;;;;9.20;3.70;;;;;;;10.65;73.27;97185.55;105348;1260;101598;-76
2023/03/10 08:56:18;;;;;;;8.10;3.20;;;;;;;10.68;72.84;97181.69;105597;1256;98364;-77
2023/03/10 08:58:45;;;;;;;9.70;3.40;;;;;;;10.74;73.06;97182.39;105376;1258;111335;-77
2023/03/10 09:01:14;;;;;;;10.40;2.90;;;;;;;10.80;71.81;97176.89;105740;1256;97949;-75
2023/03/10 09:03:46;;;;;;;8.60;3.30;;;;;;;10.87;73.20;97175.82;105364;1253;107760;-76
2023/03/10 09:06:15;;;;;;;7.90;3.40;;;;;;;10.93;73.02;97171.69;105200;1262;98044;-80
2023/03/10 09:08:42;;;;;;;10.60;3.40;;;;;;;11.00;72.53;97174.51;105503;1254;98060;-77
2023/03/10 09:11:13;;;;;;;12.60;4.40;;;;;;;11.06;72.84;97174.02;105438;1256;98081;-75
2023/03/10 09:13:40;;;;;;;9.90;3.10;;;;;;;11.13;71.95;97168.23;105388;1257;100961;-79
2023/03/10 09:16:12;;;;;;;5.30;3.00;;;;;;;11.21;71.94;97169.70;105769;1254;98299;-75
2023/03/10 09:18:41;;;;;;;10.40;3.30;;;;;;;11.25;71.81;97164.23;105638;1259;99162;-75
2023/03/10 09:21:11;;;;;;;7.50;3.40;;;;;;;11.32;71.57;97168.80;105811;1256;97928;-76
2023/03/10 09:23:41;;;;;;;8.10;2.90;;;;;;;11.39;71.28;97168.16;105671;1257;111251;-72
2023/03/10 09:26:10;;;;;;;7.60;3.80;;;;;;;11.43;71.64;97166.46;105584;1256;102305;-73
2023/03/10 09:28:41;;;;;;;8.20;3.40;;;;;;;11.45;71.24;97165.46;105611;1257;106383;-74
2023/03/10 09:31:09;;;;;;;4.50;2.70;;;;;;;11.48;71.50;97159.84;105634;1254;97962;-73
2023/03/10 09:33:39;;;;;;;5.30;2.60;;;;;;;11.54;71.78;97161.79;105553;1260;97914;-76
2023/03/10 09:36:06;;;;;;;7.10;3.10;;;;;;;11.58;70.50;97157.06;105745;1256;98558;-75
2023/03/10 09:38:35;;;;;;;8.40;3.30;;;;;;;11.61;70.67;97161.83;105465;1256;97905;-74
2023/03/10 09:41:26;;;;;;;6.20;2.90;;;;;;;11.64;70.94;97159.23;105825;1257;107482;-73
2023/03/10 09:44:22;;;;;;;8.80;3.10;;;;;;;11.67;70.46;97161.13;105546;1259;97969;-72
2023/03/10 09:46:55;;;;;;;5.00;2.40;;;;;;;11.69;70.31;97152.48;105674;1258;98426;-74
2023/03/10 09:49:38;;;;;;;6.00;2.70;;;;;;;11.75;70.23;97153.95;105468;1257;111186;-72
2023/03/10 09:52:46;;;;;;;7.70;2.60;;;;;;;11.84;70.01;97149.88;105111;1260;100589;-74
2023/03/10 09:55:23;;;;;;;6.20;2.80;;;;;;;11.90;68.51;97145.12;105223;1264;108053;-75
2023/03/10 09:57:53;;;;;;;7.20;2.70;;;;;;;11.99;69.52;97143.46;105102;1259;97973;-74
2023/03/10 10:00:42;;;;;;;6.80;2.60;;;;;;;12.04;69.32;97141.70;105402;1257;99787;-71
2023/03/10 10:03:21;;;;;;;6.70;2.50;;;;;;;12.10;68.77;97141.40;105634;1257;112861;-76
2023/03/10 10:05:51;;;;;;;9.00;2.40;;;;;;;12.19;69.25;97142.89;105166;1267;100932;-73
2023/03/10 10:08:46;;;;;;;10.20;2.80;;;;;;;12.23;68.92;97142.88;105554;1257;107328;-74
2023/03/10 10:11:28;;;;;;;7.80;2.70;;;;;;;12.30;68.81;97132.92;105419;1257;97967;-75
2023/03/10 10:14:22;;;;;;;5.90;2.80;;;;;;;12.39;68.59;97126.85;105511;1257;98174;-74
2023/03/10 10:17:03;;;;;;;7.80;3.60;;;;;;;12.50;67.58;97120.45;105565;1256;111991;-74
2023/03/10 10:19:30;;;;;;;6.30;2.50;;;;;;;12.59;68.46;97120.33;105646;1258;100993;-73
2023/03/10 10:22:07;;;;;;;6.50;2.80;;;;;;;12.67;68.30;97113.73;105750;1254;108065;-78
2023/03/10 10:24:34;;;;;;;5.90;2.70;;;;;;;12.76;68.76;97112.77;105400;1254;99166;-76
2023/03/10 10:27:01;;;;;;;6.50;2.60;;;;;;;12.83;68.33;97109.84;105357;1256;99393;-76
2023/03/10 10:29:36;;;;;;;6.30;2.20;;;;;;;12.89;68.46;97109.70;105198;1254;97945;-75
2023/03/10 10:32:17;;;;;;;8.10;2.80;;;;;;;12.94;66.89;97104.68;105524;1260;100935;-74
2023/03/10 10:34:48;;;;;;;6.30;2.40;;;;;;;12.99;67.20;97100.02;105230;1259;107693;-82
2023/03/10 10:37:34;;;;;;;8.80;2.70;;;;;;;13.06;67.22;97098.87;105270;1259;99161;-73
2023/03/10 10:40:22;;;;;;;7.60;2.60;;;;;;;13.11;67.44;97094.25;105264;1254;98360;-82
2023/03/10 10:42:59;;;;;;;4.90;2.40;;;;;;;13.14;67.58;97087.45;105588;1256;111240;-79
2023/03/10 10:45:34;;;;;;;7.50;2.90;;;;;;;13.18;67.20;97084.92;105462;1264;102074;-74
2023/03/10 10:48:02;;;;;;;8.60;2.90;;;;;;;13.20;67.38;97083.37;105584;1254;107459;-78
2023/03/10 10:50:36;;;;;;;4.80;2.20;;;;;;;13.21;67.17;97080.27;105277;1259;99157;-80
2023/03/10 10:53:12;;;;;;;5.40;2.50;;;;;;;13.23;67.17;97077.92;105276;1260;98449;-74
2023/03/10 10:55:41;;;;;;;8.30;3.00;;;;;;;13.23;65.97;97068.31;105576;1260;111074;-75
2023/03/10 10:58:37;;;;;;;6.40;2.80;;;;;;;13.24;66.50;97066.52;105700;1254;100846;-76
2023/03/10 11:01:13;;;;;;;7.60;3.30;;;;;;;13.25;66.09;97065.02;105580;1258;107239;-78
2023/03/10 11:03:48;;;;;;;5.10;3.10;;;;;;;13.29;66.10;97053.79;105163;1259;98136;-75
2023/03/10 11:06:28;;;;;;;4.90;2.80;;;;;;;13.31;66.52;97053.83;105575;1257;98058;-77
2023/03/10 11:09:17;;;;;;;6.80;3.10;;;;;;;13.34;66.44;97057.41;105594;1257;111238;-80
2023/03/10 11:11:43;;;;;;;9.30;3.10;;;;;;;13.36;65.08;97050.42;105400;1266;100980;-76
2023/03/10 11:14:41;;;;;;;7.70;3.00;;;;;;;13.39;65.91;97053.09;105748;1257;97944;-76
2023/03/10 11:17:28;;;;;;;5.20;2.90;;;;;;;13.45;65.17;97043.43;105396;1255;98088;-74
2023/03/10 11:20:07;;;;;;;8.00;3.10;;;;;;;13.49;65.19;97033.58;105256;1259;98055;-75
2023/03/10 11:22:37;;;;;;;7.70;3.10;;;;;;;13.51;64.75;97031.92;105344;1256;111184;-76
2023/03/10 11:25:35;;;;;;;8.30;3.20;;;;;;;13.53;64.08;97022.88;105976;1256;100697;-77
2023/03/10 11:28:15;;;;;;;5.80;2.60;;;;;;;13.57;63.86;97019.90;105523;1256;108116;-71
2023/03/10 11:31:20;;;;;;;7.10;2.90;;;;;;;13.61;63.70;97020.56;105502;1256;98724;-71
2023/03/10 11:33:47;;;;;;;4.90;2.60;;;;;;;13.62;63.86;97012.77;106174;1256;98401;-74
2023/03/10 11:36:26;;;;;;;6.00;2.70;;;;;;;13.61;63.67;97005.40;105666;1256;97925;-75